createdAt,value
2019-04-23T00:01:23.581Z,16.12
2019-04-23T00:03:45.910Z,16.04
2019-04-23T00:06:23.368Z,15.90
2019-04-23T00:11:25.544Z,15.83
2019-04-23T00:13:59.428Z,15.81
2019-04-23T00:18:59.424Z,15.72
2019-04-23T00:24:21.315Z,15.62
2019-04-23T00:26:45.542Z,15.53
2019-04-23T00:29:13.542Z,15.48
2019-04-23T00:31:44.536Z,15.49
2019-04-23T00:34:15.999Z,15.45
2019-04-23T00:36:47.674Z,15.39
2019-04-23T00:39:18.785Z,15.30
2019-04-23T00:42:07.108Z,15.31
2019-04-23T00:44:25.006Z,15.27
2019-04-23T00:46:48.673Z,15.23
2019-04-23T00:52:02.024Z,15.18
2019-04-23T00:54:26.204Z,15.20
2019-04-23T00:57:00.688Z,15.18
2019-04-23T00:59:33.150Z,15.15
2019-04-23T01:02:01.050Z,15.07
2019-04-23T01:04:31.631Z,14.99
2019-04-23T01:07:04.482Z,14.89
2019-04-23T01:09:38.930Z,14.88
2019-04-23T01:12:06.167Z,14.85
2019-04-23T01:14:38.522Z,14.81
2019-04-23T01:17:18.580Z,14.77
2019-04-23T01:19:44.012Z,14.69
2019-04-23T01:21:55.789Z,14.69
2019-04-23T01:24:45.437Z,14.69
2019-04-23T01:27:49.139Z,14.54
2019-04-23T01:32:43.695Z,14.50
2019-04-23T01:35:17.486Z,14.46
2019-04-23T01:38:00.812Z,14.41
2019-04-23T01:40:19.126Z,14.33
2019-04-23T01:50:31.258Z,14.23
2019-04-23T01:52:59.343Z,14.13
2019-04-23T01:55:28.016Z,14.16
2019-04-23T02:00:34.009Z,14.04
2019-04-23T02:08:08.395Z,13.95
2019-04-23T02:13:17.863Z,13.90
2019-04-23T02:18:17.878Z,13.86
2019-04-23T02:23:29.218Z,13.79
2019-04-23T02:25:54.028Z,13.75
2019-04-23T02:28:25.387Z,13.63
2019-04-23T02:33:43.930Z,13.65
2019-04-23T02:36:08.069Z,13.60
2019-04-23T02:38:45.765Z,13.57
2019-04-23T02:41:12.853Z,13.52
2019-04-23T02:43:39.158Z,13.45
2019-04-23T02:46:09.235Z,13.45
2019-04-23T02:51:22.482Z,13.33
2019-04-23T02:56:30.700Z,13.37
2019-04-23T02:59:02.437Z,13.29
2019-04-23T03:01:29.855Z,13.31
2019-04-23T03:03:59.744Z,13.21
2019-04-23T03:06:30.037Z,13.17
2019-04-23T03:08:49.198Z,13.21
2019-04-23T03:11:32.181Z,13.25
2019-04-23T03:14:03.750Z,13.23
2019-04-23T03:22:42.140Z,13.12
2019-04-23T03:25:10.651Z,13.06
2019-04-23T03:27:34.097Z,13.14
2019-04-23T03:30:13.394Z,13.11
2019-04-23T03:37:42.343Z,12.75
2019-04-23T03:40:07.929Z,12.77
2019-04-23T03:42:42.315Z,12.88
2019-04-23T03:45:32.482Z,12.88
2019-04-23T03:47:48.154Z,12.90
2019-04-23T03:50:25.864Z,12.76
2019-04-23T03:55:30.185Z,12.59
2019-04-23T03:57:43.272Z,12.61
2019-04-23T04:12:57.657Z,12.85
2019-04-23T04:20:46.976Z,13.09
2019-04-23T04:25:39.271Z,13.18
2019-04-23T04:28:17.731Z,13.24
2019-04-23T04:30:43.768Z,13.15
2019-04-23T04:36:01.023Z,13.04
2019-04-23T04:46:12.745Z,13.01
2019-04-23T04:48:33.001Z,13.03
2019-04-23T04:51:08.038Z,13.09
2019-04-23T04:53:52.126Z,12.83
2019-04-23T04:58:47.435Z,12.84
2019-04-23T05:03:29.569Z,12.92
2019-04-23T05:11:17.483Z,13.31
2019-04-23T05:13:58.404Z,13.31
2019-04-23T05:16:22.797Z,13.45
2019-04-23T05:19:04.141Z,13.53
2019-04-23T05:21:37.042Z,13.55
2019-04-23T05:24:06.680Z,13.56
2019-04-23T05:29:11.204Z,13.75
2019-04-23T05:31:30.977Z,13.70
2019-04-23T05:34:06.063Z,14.21
2019-04-23T05:39:19.285Z,14.07
2019-04-23T05:44:15.510Z,14.09
2019-04-23T05:46:36.670Z,14.02
2019-04-23T05:49:14.219Z,14.04
2019-04-23T05:51:54.255Z,14.35
2019-04-23T05:54:22.594Z,14.26
2019-04-23T05:56:46.796Z,14.32
2019-04-23T05:59:19.550Z,14.42
2019-04-23T06:04:27.125Z,14.52
2019-04-23T06:07:11.315Z,14.59
2019-04-23T06:09:25.216Z,14.69
2019-04-23T06:14:37.245Z,14.84
2019-04-23T06:17:09.240Z,14.93
2019-04-23T06:19:28.769Z,14.61
2019-04-23T06:22:18.494Z,14.81
2019-04-23T06:24:39.853Z,14.85
2019-04-23T06:27:10.287Z,15.00
2019-04-23T06:32:09.432Z,15.14
2019-04-23T06:34:43.493Z,15.40
2019-04-23T06:37:39.797Z,15.53
2019-04-23T06:42:11.542Z,15.62
2019-04-23T06:44:51.776Z,15.72
2019-04-23T06:47:20.105Z,15.77
2019-04-23T06:49:55.674Z,15.68
2019-04-23T06:57:39.756Z,15.98
2019-04-23T07:00:15.491Z,16.01
2019-04-23T07:02:34.370Z,16.00
2019-04-23T07:10:07.428Z,16.32
2019-04-23T07:12:41.131Z,16.62
2019-04-23T07:15:24.656Z,16.60
2019-04-23T07:17:35.012Z,16.46
2019-04-23T07:20:12.810Z,16.52
2019-04-23T07:22:42.818Z,16.83
2019-04-23T07:25:17.500Z,16.76
2019-04-23T07:28:07.924Z,16.49
2019-04-23T07:30:20.899Z,16.37
2019-04-23T07:32:52.897Z,16.65
2019-04-23T07:35:15.840Z,16.68
2019-04-23T07:38:02.968Z,16.79
2019-04-23T07:40:39.027Z,16.87
2019-04-23T07:43:23.314Z,16.85
2019-04-23T07:46:08.800Z,16.49
2019-04-23T07:48:43.892Z,16.52
2019-04-23T07:51:16.238Z,16.58
2019-04-23T07:53:31.557Z,16.47
2019-04-23T07:58:44.759Z,16.70
2019-04-23T08:01:06.849Z,16.72
2019-04-23T08:06:05.851Z,16.78
2019-04-23T08:08:43.312Z,16.98
2019-04-23T08:13:55.664Z,17.02
2019-04-23T08:16:28.176Z,17.12
2019-04-23T08:21:40.179Z,17.09
2019-04-23T08:29:10.147Z,17.45
2019-04-23T08:31:43.688Z,17.65
2019-04-23T08:34:25.528Z,17.82
2019-04-23T08:36:49.975Z,17.75
2019-04-23T08:39:21.575Z,17.58
2019-04-23T08:41:56.269Z,17.49
2019-04-23T08:44:21.634Z,17.65
2019-04-23T08:47:00.077Z,17.83
2019-04-23T08:49:29.583Z,17.77
2019-04-23T08:52:00.605Z,17.51
2019-04-23T08:54:37.002Z,18.04
2019-04-23T08:57:04.072Z,17.84
2019-04-23T09:02:18.408Z,17.95
2019-04-23T09:07:13.367Z,18.44
2019-04-23T09:12:08.186Z,17.93
2019-04-23T09:14:39.451Z,17.96
2019-04-23T09:17:13.119Z,18.23
2019-04-23T09:19:54.465Z,18.45
2019-04-23T09:24:48.516Z,17.87
2019-04-23T09:27:23.311Z,17.96
2019-04-23T09:29:58.011Z,17.82
2019-04-23T09:37:48.822Z,17.71
2019-04-23T09:40:31.813Z,17.71
2019-04-23T09:48:09.111Z,17.82
2019-04-23T09:53:27.745Z,17.86
2019-04-23T09:55:47.625Z,18.00
2019-04-23T09:58:34.657Z,18.06
2019-04-23T10:01:23.442Z,18.14
2019-04-23T10:03:43.170Z,18.07
2019-04-23T10:06:03.942Z,18.20
2019-04-23T10:08:36.469Z,18.44
2019-04-23T10:11:02.889Z,18.38
2019-04-23T10:13:34.321Z,18.46
2019-04-23T10:16:06.421Z,18.61
2019-04-23T10:18:37.349Z,18.78
2019-04-23T10:21:07.818Z,18.63
2019-04-23T10:23:39.017Z,18.65
2019-04-23T10:26:10.075Z,18.50
2019-04-23T10:28:51.857Z,18.57
2019-04-23T10:31:22.884Z,18.72
2019-04-23T10:33:52.799Z,18.67
2019-04-23T10:36:25.914Z,18.72
2019-04-23T10:39:00.583Z,18.90
2019-04-23T10:41:25.896Z,19.05
2019-04-23T10:43:58.687Z,18.83
2019-04-23T10:47:17.240Z,18.95
2019-04-23T10:49:53.397Z,19.20
2019-04-23T10:54:57.372Z,19.53
2019-04-23T10:57:19.818Z,19.63
2019-04-23T11:00:08.504Z,19.42
2019-04-23T11:05:15.807Z,19.34
2019-04-23T11:07:36.836Z,19.54
2019-04-23T11:10:11.241Z,19.67
2019-04-23T11:15:28.184Z,20.11
2019-04-23T11:25:31.869Z,20.31
2019-04-23T11:28:03.046Z,20.08
2019-04-23T11:30:31.878Z,20.22
2019-04-23T11:35:39.975Z,20.38
2019-04-23T11:38:32.546Z,20.35
2019-04-23T11:40:34.186Z,20.67
2019-04-23T11:43:14.783Z,20.82
2019-04-23T11:45:48.514Z,21.19
2019-04-23T11:48:34.334Z,21.13
2019-04-23T11:51:18.771Z,21.22
2019-04-23T11:53:19.978Z,21.30
2019-04-23T11:58:21.873Z,21.26
2019-04-23T12:01:11.433Z,21.27
2019-04-23T12:03:47.093Z,21.37
2019-04-23T12:06:30.093Z,21.22
2019-04-23T12:09:09.705Z,21.35
2019-04-23T12:14:37.167Z,21.53
2019-04-23T12:17:08.242Z,21.55
2019-04-23T12:19:54.902Z,21.38
2019-04-23T12:22:01.174Z,21.62
2019-04-23T12:27:06.135Z,21.72
2019-04-23T12:35:04.256Z,21.75
2019-04-23T12:37:42.712Z,21.46
2019-04-23T12:48:05.278Z,21.90
2019-04-23T12:50:42.308Z,21.78
2019-04-23T12:52:54.211Z,21.85
2019-04-23T12:55:27.829Z,22.06
2019-04-23T12:58:03.268Z,21.83
2019-04-23T13:00:35.846Z,21.91
2019-04-23T13:02:55.495Z,21.35
2019-04-23T13:07:58.658Z,21.67
2019-04-23T13:10:42.300Z,21.80
2019-04-23T13:18:14.818Z,21.84
2019-04-23T13:23:19.223Z,22.45
2019-04-23T13:25:57.099Z,22.45
2019-04-23T13:28:40.123Z,22.26
2019-04-23T13:33:49.961Z,21.95
2019-04-23T13:36:17.739Z,21.90
2019-04-23T13:38:56.731Z,22.22
2019-04-23T13:43:48.353Z,22.41
2019-04-23T13:46:14.900Z,22.33
2019-04-23T13:48:49.345Z,22.41
2019-04-23T13:51:27.341Z,22.82
2019-04-23T13:53:53.401Z,22.97
2019-04-23T13:57:13.046Z,22.79
2019-04-23T13:59:03.348Z,22.51
2019-04-23T14:01:33.583Z,22.57
2019-04-23T14:04:16.173Z,22.60
2019-04-23T14:09:19.974Z,23.08
2019-04-23T14:12:01.503Z,22.88
2019-04-23T14:14:36.220Z,22.62
2019-04-23T14:17:00.194Z,22.75
2019-04-23T14:19:16.819Z,23.30
2019-04-23T14:22:18.051Z,23.40
2019-04-23T14:24:38.879Z,23.35
2019-04-23T14:26:58.267Z,23.44
2019-04-23T14:29:41.443Z,23.61
2019-04-23T14:32:10.257Z,23.64
2019-04-23T14:34:35.287Z,23.24
2019-04-23T14:39:43.592Z,23.31
2019-04-23T14:42:22.538Z,23.26
2019-04-23T14:44:56.092Z,23.28
2019-04-23T14:47:24.292Z,23.24
2019-04-23T14:50:17.070Z,23.39
2019-04-23T14:55:37.957Z,23.43
2019-04-23T14:57:34.080Z,23.56
2019-04-23T15:00:01.679Z,23.82
2019-04-23T15:02:40.631Z,24.10
2019-04-23T15:05:04.130Z,24.01
2019-04-23T15:07:38.073Z,23.80
2019-04-23T15:10:12.999Z,23.98
2019-04-23T15:12:42.538Z,23.93
2019-04-23T15:17:45.084Z,23.54
2019-04-23T15:20:15.016Z,23.58
2019-04-23T15:23:09.208Z,23.53
2019-04-23T15:30:17.528Z,23.51
2019-04-23T15:33:03.958Z,23.68
2019-04-23T15:35:29.441Z,23.65
2019-04-23T15:40:25.162Z,23.69
2019-04-23T15:43:04.776Z,23.75
2019-04-23T15:45:42.367Z,23.67
2019-04-23T15:48:11.890Z,23.68
2019-04-23T15:50:38.540Z,23.67
2019-04-23T15:53:19.589Z,23.57
2019-04-23T15:55:43.727Z,23.49
2019-04-23T15:58:15.701Z,23.56
2019-04-23T16:00:48.109Z,23.55
2019-04-23T16:02:53.693Z,23.53
2019-04-23T16:05:23.623Z,23.53
2019-04-23T16:08:13.105Z,23.60
2019-04-23T16:11:06.126Z,23.49
2019-04-23T16:13:30.971Z,23.54
2019-04-23T16:15:58.024Z,23.40
2019-04-23T16:18:37.396Z,23.37
2019-04-23T16:21:10.581Z,23.40
2019-04-23T16:23:41.255Z,23.31
2019-04-23T16:26:14.640Z,23.26
2019-04-23T16:29:01.404Z,23.26
2019-04-23T16:31:24.120Z,23.21
2019-04-23T16:33:57.391Z,23.17
2019-04-23T16:36:25.214Z,23.13
2019-04-23T16:39:10.244Z,23.13
2019-04-23T16:41:51.674Z,23.13
2019-04-23T16:44:07.957Z,23.09
2019-04-23T16:46:33.891Z,22.99
2019-04-23T16:54:09.944Z,22.83
2019-04-23T16:57:07.611Z,22.75
2019-04-23T16:59:13.515Z,22.83
2019-04-23T17:01:44.573Z,22.72
2019-04-23T17:04:18.258Z,22.67
2019-04-23T17:06:48.975Z,22.72
2019-04-23T17:09:21.543Z,22.60
2019-04-23T17:11:55.612Z,22.47
2019-04-23T17:14:21.116Z,22.55
2019-04-23T17:16:44.318Z,22.40
2019-04-23T17:19:24.261Z,22.37
2019-04-23T17:22:01.110Z,22.39
2019-04-23T17:24:23.214Z,22.38
2019-04-23T17:27:03.763Z,22.37
2019-04-23T17:29:28.305Z,22.27
2019-04-23T17:32:00.558Z,22.16
2019-04-23T17:34:35.261Z,22.09
2019-04-23T17:37:17.306Z,22.02
2019-04-23T17:39:52.990Z,21.97
2019-04-23T17:45:16.294Z,21.81
2019-04-23T17:47:43.828Z,21.78
2019-04-23T17:50:13.392Z,21.69
2019-04-23T17:52:41.780Z,21.62
2019-04-23T17:55:15.410Z,21.55
2019-04-23T18:05:16.691Z,21.30
2019-04-23T18:13:08.504Z,21.14
2019-04-23T18:15:41.890Z,21.12
2019-04-23T18:17:57.181Z,21.04
2019-04-23T18:20:38.527Z,20.98
2019-04-23T18:23:09.486Z,20.90
2019-04-23T18:26:00.203Z,20.82
2019-04-23T18:28:31.741Z,20.79
2019-04-23T18:31:11.372Z,20.70
2019-04-23T18:36:08.144Z,20.53
2019-04-23T18:38:50.049Z,20.57
2019-04-23T18:41:33.721Z,20.44
2019-04-23T18:43:51.086Z,20.38
2019-04-23T18:46:26.785Z,20.31
2019-04-23T18:48:51.811Z,20.24
2019-04-23T18:51:31.754Z,20.23
2019-04-23T18:56:30.598Z,20.14
2019-04-23T18:59:06.842Z,20.12
2019-04-23T19:01:36.619Z,20.03
2019-04-23T19:06:37.824Z,19.93
2019-04-23T19:09:23.771Z,19.85
2019-04-23T19:12:05.143Z,19.82
2019-04-23T19:14:53.966Z,19.79
2019-04-23T19:29:46.321Z,19.64
2019-04-23T19:32:24.534Z,19.59
2019-04-23T19:34:52.976Z,19.56
2019-04-23T19:37:23.146Z,19.54
2019-04-23T19:39:44.926Z,19.52
2019-04-23T19:42:14.143Z,19.49
2019-04-23T19:44:48.196Z,19.43
2019-04-23T19:47:25.650Z,19.39
2019-04-23T19:50:03.723Z,19.31
2019-04-23T19:52:34.146Z,19.19
2019-04-23T19:54:58.590Z,19.11
2019-04-23T19:57:33.803Z,19.10
2019-04-23T19:59:55.611Z,19.11
2019-04-23T20:05:06.863Z,19.03
2019-04-23T20:07:48.310Z,19.01
2019-04-23T20:09:55.166Z,19.02
2019-04-23T20:14:59.967Z,18.99
2019-04-23T20:20:09.063Z,18.94
2019-04-23T20:22:48.648Z,18.89
2019-04-23T20:27:52.481Z,18.87
2019-04-23T20:30:55.001Z,18.86
2019-04-23T20:35:36.586Z,18.83
2019-04-23T20:38:27.614Z,18.81
2019-04-23T20:43:09.250Z,18.78
2019-04-23T20:45:46.514Z,18.77
2019-04-23T20:48:12.682Z,18.80
2019-04-23T20:50:48.297Z,18.77
2019-04-23T20:53:13.444Z,18.75
2019-04-23T20:58:21.237Z,18.75
2019-04-23T21:01:00.405Z,18.74
2019-04-23T21:03:39.077Z,18.72
2019-04-23T21:06:04.394Z,18.71
2019-04-23T21:10:55.474Z,18.67
2019-04-23T21:13:47.526Z,18.65
2019-04-23T21:16:08.945Z,18.61
2019-04-23T21:18:42.524Z,18.57
2019-04-23T21:21:13.583Z,18.58
2019-04-23T21:23:44.019Z,18.65
2019-04-23T21:26:01.936Z,18.58
2019-04-23T21:28:52.573Z,18.54
2019-04-23T21:31:25.353Z,18.55
2019-04-23T21:39:20.310Z,18.60
2019-04-23T21:44:13.417Z,18.66
2019-04-23T21:46:50.989Z,18.59
2019-04-23T21:49:29.600Z,18.58
2019-04-23T21:51:49.322Z,18.56
2019-04-23T21:54:21.645Z,18.55
2019-04-23T21:59:23.132Z,18.52
2019-04-23T22:01:58.810Z,18.52
2019-04-23T22:04:36.195Z,18.45
2019-04-23T22:07:19.510Z,18.41
2019-04-23T22:09:34.635Z,18.42
2019-04-23T22:14:40.145Z,18.36
2019-04-23T22:17:10.274Z,18.33
2019-04-23T22:19:38.690Z,18.24
2019-04-23T22:22:13.281Z,18.20
2019-04-23T22:27:13.270Z,18.17
2019-04-23T22:29:44.630Z,18.17
2019-04-23T22:32:20.154Z,18.16
2019-04-23T22:34:55.641Z,18.17
2019-04-23T22:39:52.801Z,18.18
2019-04-23T22:42:41.196Z,18.18
2019-04-23T22:45:05.582Z,18.20
2019-04-23T22:47:33.820Z,18.20
2019-04-23T22:52:33.733Z,18.14
2019-04-23T22:57:59.902Z,18.10
2019-04-23T23:00:14.018Z,18.06
2019-04-23T23:03:00.878Z,18.05
2019-04-23T23:05:29.028Z,18.03
2019-04-23T23:08:03.030Z,18.04
2019-04-23T23:10:27.903Z,18.00
2019-04-23T23:13:03.823Z,18.01
2019-04-23T23:18:07.463Z,18.03
2019-04-23T23:20:29.280Z,17.99
2019-04-23T23:25:31.574Z,18.03
2019-04-23T23:28:12.168Z,18.02
2019-04-23T23:38:24.024Z,18.10
2019-04-23T23:41:03.772Z,18.17
2019-04-23T23:43:24.175Z,18.18
2019-04-23T23:46:06.961Z,18.17
2019-04-23T23:48:28.047Z,18.17
2019-04-23T23:51:29.467Z,18.14
2019-04-23T23:53:42.854Z,18.15
2019-04-23T23:56:15.377Z,18.17
2019-04-23T23:58:52.923Z,18.18
